createdAt,value
2018-08-28T00:01:20.228Z,18.10
2018-08-28T00:03:48.813Z,18.10
2018-08-28T00:06:17.252Z,18.10
2018-08-28T00:08:45.644Z,18.00
2018-08-28T00:11:14.149Z,18.10
2018-08-28T00:13:42.649Z,18.00
2018-08-28T00:16:11.216Z,18.00
2018-08-28T00:18:40.553Z,18.00
2018-08-28T00:21:09.036Z,17.90
2018-08-28T00:23:37.467Z,17.90
2018-08-28T00:26:05.925Z,17.90
2018-08-28T00:28:34.340Z,17.90
2018-08-28T00:31:02.864Z,17.70
2018-08-28T00:33:31.281Z,17.70
2018-08-28T00:35:59.770Z,17.70
2018-08-28T00:38:28.200Z,17.70
2018-08-28T00:40:56.653Z,17.70
2018-08-28T00:43:25.093Z,17.70
2018-08-28T00:45:53.594Z,17.70
2018-08-28T00:48:22.008Z,17.70
2018-08-28T00:50:50.474Z,17.60
2018-08-28T00:53:18.889Z,17.60
2018-08-28T00:55:47.333Z,17.50
2018-08-28T00:58:15.815Z,17.50
2018-08-28T01:00:44.269Z,17.40
2018-08-28T01:03:12.707Z,17.40
2018-08-28T01:05:41.161Z,17.40
2018-08-28T01:08:09.602Z,17.30
2018-08-28T01:10:38.063Z,17.30
2018-08-28T01:13:06.473Z,17.30
2018-08-28T01:15:34.977Z,17.30
2018-08-28T01:18:03.405Z,17.30
2018-08-28T01:20:31.869Z,17.20
2018-08-28T01:23:00.320Z,17.20
2018-08-28T01:25:28.801Z,17.20
2018-08-28T01:27:57.284Z,17.10
2018-08-28T01:30:32.879Z,17.10
2018-08-28T01:33:02.852Z,17.10
2018-08-28T01:35:31.305Z,17.10
2018-08-28T01:37:59.878Z,17.10
2018-08-28T01:40:28.805Z,17.10
2018-08-28T01:42:57.737Z,17.10
2018-08-28T01:45:26.221Z,17.10
2018-08-28T01:47:54.732Z,17.10
2018-08-28T01:50:23.216Z,17.20
2018-08-28T01:52:51.669Z,17.20
2018-08-28T01:55:20.098Z,17.20
2018-08-28T01:57:48.587Z,17.20
2018-08-28T02:00:17.006Z,17.20
2018-08-28T02:02:45.594Z,17.20
2018-08-28T02:05:14.038Z,17.20
2018-08-28T02:07:42.489Z,17.10
2018-08-28T02:10:10.942Z,17.10
2018-08-28T02:12:39.405Z,17.10
2018-08-28T02:15:07.927Z,17.00
2018-08-28T02:17:36.399Z,17.00
2018-08-28T02:20:05.029Z,16.90
2018-08-28T02:22:33.481Z,16.80
2018-08-28T02:25:01.918Z,16.80
2018-08-28T02:27:30.357Z,16.80
2018-08-28T02:29:58.810Z,16.80
2018-08-28T02:32:27.267Z,16.70
2018-08-28T02:34:55.924Z,16.70
2018-08-28T02:37:24.386Z,16.60
2018-08-28T02:39:53.057Z,16.60
2018-08-28T02:42:21.531Z,16.60
2018-08-28T02:44:50.117Z,16.60
2018-08-28T02:47:18.573Z,16.50
2018-08-28T02:49:47.013Z,16.50
2018-08-28T02:52:15.457Z,16.50
2018-08-28T02:54:43.928Z,16.50
2018-08-28T02:57:12.413Z,16.60
2018-08-28T02:59:40.907Z,16.60
2018-08-28T03:02:09.444Z,16.70
2018-08-28T03:04:37.869Z,16.70
2018-08-28T03:07:06.358Z,16.70
2018-08-28T03:09:34.814Z,16.70
2018-08-28T03:12:03.278Z,16.60
2018-08-28T03:14:31.853Z,16.60
2018-08-28T03:17:00.301Z,16.60
2018-08-28T03:19:28.781Z,16.60
2018-08-28T03:21:57.333Z,16.60
2018-08-28T03:24:25.978Z,16.60
2018-08-28T03:26:54.434Z,16.60
2018-08-28T03:29:23.059Z,16.60
2018-08-28T03:31:51.526Z,16.40
2018-08-28T03:34:19.981Z,16.40
2018-08-28T03:36:48.406Z,16.30
2018-08-28T03:39:16.875Z,16.20
2018-08-28T03:41:45.318Z,16.10
2018-08-28T03:44:13.760Z,16.10
2018-08-28T03:46:42.212Z,16.00
2018-08-28T03:49:10.661Z,16.00
2018-08-28T03:51:39.096Z,15.90
2018-08-28T03:54:07.590Z,15.90
2018-08-28T03:56:36.034Z,15.80
2018-08-28T03:59:04.693Z,15.80
2018-08-28T04:01:33.101Z,15.80
2018-08-28T04:04:01.550Z,15.70
2018-08-28T04:06:30.005Z,15.70
2018-08-28T04:08:58.480Z,15.60
2018-08-28T04:11:27.062Z,15.60
2018-08-28T04:13:55.511Z,15.50
2018-08-28T04:16:23.944Z,15.50
2018-08-28T04:18:52.408Z,15.40
2018-08-28T04:21:20.965Z,15.40
2018-08-28T04:23:49.452Z,15.40
2018-08-28T04:26:18.060Z,15.40
2018-08-28T04:28:46.578Z,15.40
2018-08-28T04:31:14.983Z,15.30
2018-08-28T04:33:43.428Z,15.30
2018-08-28T04:36:11.853Z,15.30
2018-08-28T04:38:40.336Z,15.30
2018-08-28T04:41:08.762Z,15.40
2018-08-28T04:43:37.234Z,15.40
2018-08-28T04:46:05.682Z,15.50
2018-08-28T04:48:34.147Z,15.60
2018-08-28T04:51:02.561Z,15.60
2018-08-28T04:53:31.021Z,15.60
2018-08-28T04:55:59.497Z,15.60
2018-08-28T04:58:27.975Z,15.70
2018-08-28T05:00:56.426Z,15.70
2018-08-28T05:03:24.872Z,15.80
2018-08-28T05:05:53.293Z,15.80
2018-08-28T05:08:21.732Z,15.80
2018-08-28T05:10:50.193Z,15.70
2018-08-28T05:13:18.661Z,15.70
2018-08-28T05:15:47.169Z,15.70
2018-08-28T05:18:15.628Z,15.70
2018-08-28T05:20:44.108Z,15.80
2018-08-28T05:23:12.621Z,15.90
2018-08-28T05:25:41.097Z,16.10
2018-08-28T05:28:09.543Z,16.20
2018-08-28T05:30:38.093Z,16.20
2018-08-28T05:33:06.520Z,16.30
2018-08-28T05:35:34.970Z,16.40
2018-08-28T05:38:04.005Z,16.40
2018-08-28T05:40:32.468Z,16.50
2018-08-28T05:43:00.892Z,16.70
2018-08-28T05:45:29.320Z,16.70
2018-08-28T05:47:57.718Z,16.90
2018-08-28T05:50:26.200Z,17.10
2018-08-28T05:52:54.632Z,17.30
2018-08-28T05:55:23.093Z,17.30
2018-08-28T05:57:51.541Z,17.50
2018-08-28T06:00:20.078Z,17.50
2018-08-28T06:02:48.491Z,17.50
2018-08-28T06:05:16.952Z,17.50
2018-08-28T06:07:45.393Z,17.80
2018-08-28T06:10:13.850Z,17.90
2018-08-28T06:12:42.256Z,18.20
2018-08-28T06:15:10.766Z,18.50
2018-08-28T06:17:39.221Z,18.70
2018-08-28T06:20:07.937Z,18.80
2018-08-28T06:22:36.353Z,18.80
2018-08-28T06:25:04.862Z,18.90
2018-08-28T06:27:33.281Z,19.00
2018-08-28T06:30:01.734Z,19.20
2018-08-28T06:32:30.169Z,19.80
2018-08-28T06:34:58.625Z,20.90
2018-08-28T06:37:27.056Z,21.70
2018-08-28T06:39:55.554Z,22.50
2018-08-28T06:42:23.991Z,22.80
2018-08-28T06:44:52.469Z,23.00
2018-08-28T06:47:20.897Z,23.30
2018-08-28T06:49:49.370Z,24.40
2018-08-28T06:52:17.828Z,25.00
2018-08-28T06:54:46.242Z,25.40
2018-08-28T06:57:14.709Z,25.80
2018-08-28T06:59:43.200Z,25.50
2018-08-28T07:02:11.694Z,25.30
2018-08-28T07:04:40.294Z,25.20
2018-08-28T07:07:09.325Z,24.70
2018-08-28T07:09:37.746Z,23.50
2018-08-28T07:12:06.246Z,23.60
2018-08-28T07:14:34.659Z,25.20
2018-08-28T07:17:03.172Z,27.20
2018-08-28T07:19:31.581Z,28.30
2018-08-28T07:22:00.039Z,28.70
2018-08-28T07:24:28.483Z,28.70
2018-08-28T07:26:56.932Z,28.70
2018-08-28T07:29:25.392Z,28.60
2018-08-28T07:31:53.938Z,29.20
2018-08-28T07:34:22.312Z,29.00
2018-08-28T07:36:50.793Z,29.50
2018-08-28T07:39:19.265Z,30.30
2018-08-28T07:41:47.721Z,31.00
2018-08-28T07:44:16.145Z,30.90
2018-08-28T07:46:44.609Z,30.90
2018-08-28T07:49:13.229Z,30.60
2018-08-28T07:51:41.729Z,31.50
2018-08-28T07:54:10.160Z,32.30
2018-08-28T07:56:38.659Z,31.10
2018-08-28T07:59:07.089Z,30.00
2018-08-28T08:01:35.636Z,29.90
2018-08-28T08:04:04.031Z,29.60
2018-08-28T08:06:32.460Z,30.10
2018-08-28T08:09:00.874Z,31.50
2018-08-28T08:11:29.309Z,31.50
2018-08-28T08:13:57.892Z,31.50
2018-08-28T08:16:26.337Z,31.60
2018-08-28T08:18:54.789Z,32.30
2018-08-28T08:21:23.265Z,31.70
2018-08-28T08:23:51.677Z,32.00
2018-08-28T08:26:20.108Z,32.30
2018-08-28T08:28:48.525Z,33.10
2018-08-28T08:31:16.971Z,33.10
2018-08-28T08:33:45.451Z,33.00
2018-08-28T08:36:13.882Z,32.70
2018-08-28T08:38:42.357Z,31.60
2018-08-28T08:41:10.797Z,32.80
2018-08-28T08:43:39.248Z,33.70
2018-08-28T08:46:07.759Z,34.40
2018-08-28T08:48:36.208Z,35.30
2018-08-28T08:51:04.667Z,35.30
2018-08-28T08:53:33.121Z,35.30
2018-08-28T08:56:01.556Z,35.50
2018-08-28T08:58:30.045Z,36.00
2018-08-28T09:00:58.652Z,35.90
2018-08-28T09:03:27.130Z,35.30
2018-08-28T09:05:55.585Z,35.20
2018-08-28T09:08:24.061Z,35.60
2018-08-28T09:10:52.531Z,36.70
2018-08-28T09:13:21.139Z,37.00
2018-08-28T09:15:49.583Z,36.60
2018-08-28T09:18:18.093Z,36.40
2018-08-28T09:20:46.528Z,35.30
2018-08-28T09:23:14.990Z,34.40
2018-08-28T09:25:43.428Z,33.70
2018-08-28T09:28:11.887Z,35.40
2018-08-28T09:30:40.334Z,36.10
2018-08-28T09:33:08.850Z,36.20
2018-08-28T09:35:37.270Z,37.40
2018-08-28T09:38:05.881Z,37.40
2018-08-28T09:40:34.317Z,37.40
2018-08-28T09:43:02.760Z,37.40
2018-08-28T09:45:31.187Z,38.10
2018-08-28T09:47:59.716Z,36.60
2018-08-28T09:50:28.158Z,36.60
2018-08-28T09:52:56.774Z,36.80
2018-08-28T09:55:25.213Z,37.50
2018-08-28T09:57:53.685Z,36.90
2018-08-28T10:00:27.146Z,36.30
2018-08-28T10:02:56.316Z,36.40
2018-08-28T10:05:24.918Z,37.20
2018-08-28T10:07:53.383Z,38.20
2018-08-28T10:10:21.821Z,38.00
2018-08-28T10:12:50.288Z,37.50
2018-08-28T10:15:18.709Z,36.40
2018-08-28T10:17:47.178Z,36.20
2018-08-28T10:20:15.638Z,35.20
2018-08-28T10:22:44.125Z,35.40
2018-08-28T10:25:12.532Z,35.50
2018-08-28T10:27:41.006Z,35.60
2018-08-28T10:30:09.457Z,35.00
2018-08-28T10:32:37.905Z,34.60
2018-08-28T10:35:06.434Z,34.60
2018-08-28T10:37:34.871Z,34.50
2018-08-28T10:40:03.378Z,34.30
2018-08-28T10:42:31.822Z,35.20
2018-08-28T10:45:00.345Z,35.50
2018-08-28T10:47:28.762Z,35.60
2018-08-28T10:49:57.274Z,34.00
2018-08-28T10:52:25.738Z,33.80
2018-08-28T10:54:54.191Z,31.60
2018-08-28T10:57:22.653Z,31.30
2018-08-28T10:59:51.568Z,30.30
2018-08-28T11:02:20.320Z,29.60
2018-08-28T11:04:48.798Z,29.40
2018-08-28T11:07:17.229Z,28.60
2018-08-28T11:09:45.702Z,28.30
2018-08-28T11:12:14.137Z,27.80
2018-08-28T11:14:42.585Z,27.90
2018-08-28T11:17:11.057Z,27.90
2018-08-28T11:19:39.560Z,27.70
2018-08-28T11:22:08.032Z,27.30
2018-08-28T11:24:36.490Z,27.20
2018-08-28T11:27:04.938Z,26.60
2018-08-28T11:29:33.422Z,26.60
2018-08-28T11:32:01.897Z,26.30
2018-08-28T11:34:30.346Z,26.40
2018-08-28T11:36:58.889Z,26.30
2018-08-28T11:39:27.362Z,26.10
2018-08-28T11:41:55.802Z,25.90
2018-08-28T11:44:24.263Z,25.90
2018-08-28T11:46:52.693Z,25.70
2018-08-28T11:49:21.140Z,25.70
2018-08-28T11:51:49.621Z,25.70
2018-08-28T11:54:18.030Z,25.90
2018-08-28T11:56:46.504Z,25.90
2018-08-28T11:59:14.919Z,26.00
2018-08-28T12:01:43.366Z,25.80
2018-08-28T12:04:11.781Z,25.60
2018-08-28T12:06:40.242Z,25.50
2018-08-28T12:09:09.634Z,25.50
2018-08-28T12:11:38.079Z,25.70
2018-08-28T12:14:06.597Z,25.90
2018-08-28T12:16:35.046Z,25.80
2018-08-28T12:19:03.485Z,25.40
2018-08-28T12:21:31.929Z,25.30
2018-08-28T12:24:00.377Z,25.30
2018-08-28T12:26:28.831Z,25.50
2018-08-28T12:28:57.248Z,25.50
2018-08-28T12:31:25.732Z,25.70
2018-08-28T12:33:54.149Z,25.80
2018-08-28T12:36:22.625Z,25.70
2018-08-28T12:38:51.045Z,25.60
2018-08-28T12:41:19.521Z,25.40
2018-08-28T12:43:48.059Z,25.20
2018-08-28T12:46:16.541Z,25.10
2018-08-28T12:48:44.984Z,25.10
2018-08-28T12:51:13.526Z,25.10
2018-08-28T12:53:41.918Z,25.00
2018-08-28T12:56:10.402Z,25.20
2018-08-28T12:58:38.919Z,25.30
2018-08-28T13:01:07.426Z,25.30
2018-08-28T13:03:35.841Z,25.30
2018-08-28T13:06:04.355Z,25.60
2018-08-28T13:08:32.776Z,25.80
2018-08-28T13:11:01.275Z,25.80
2018-08-28T13:13:29.721Z,25.80
2018-08-28T13:15:58.216Z,25.50
2018-08-28T13:18:26.660Z,25.40
2018-08-28T13:20:55.221Z,25.40
2018-08-28T13:23:23.640Z,25.50
2018-08-28T13:25:52.141Z,25.40
2018-08-28T13:28:20.530Z,25.50
2018-08-28T13:30:48.981Z,25.20
2018-08-28T13:33:17.405Z,25.20
2018-08-28T13:35:45.852Z,25.20
2018-08-28T13:38:14.347Z,25.40
2018-08-28T13:40:42.874Z,25.50
2018-08-28T13:43:11.269Z,25.60
2018-08-28T13:45:39.701Z,25.40
2018-08-28T13:48:08.201Z,25.30
2018-08-28T13:50:36.626Z,25.30
2018-08-28T13:53:05.353Z,25.20
2018-08-28T13:55:33.826Z,25.20
2018-08-28T13:58:02.310Z,25.20
2018-08-28T14:00:30.861Z,25.20
2018-08-28T14:02:59.301Z,25.20
2018-08-28T14:05:27.755Z,25.20
2018-08-28T14:07:56.208Z,25.20
2018-08-28T14:10:24.621Z,25.10
2018-08-28T14:12:53.065Z,25.10
2018-08-28T14:15:21.685Z,25.00
2018-08-28T14:17:50.149Z,25.00
2018-08-28T14:20:18.542Z,25.00
2018-08-28T14:22:47.046Z,25.00
2018-08-28T14:25:15.503Z,25.00
2018-08-28T14:27:48.713Z,25.10
2018-08-28T14:30:17.129Z,25.10
2018-08-28T14:32:45.633Z,25.20
2018-08-28T14:35:14.044Z,25.00
2018-08-28T14:37:42.554Z,25.00
2018-08-28T14:40:10.997Z,25.00
2018-08-28T14:42:39.525Z,25.00
2018-08-28T14:45:08.053Z,25.10
2018-08-28T14:47:36.545Z,25.10
2018-08-28T14:50:05.404Z,25.10
2018-08-28T14:52:33.806Z,25.10
2018-08-28T14:55:02.297Z,25.00
2018-08-28T14:57:30.802Z,25.00
2018-08-28T14:59:59.225Z,25.00
2018-08-28T15:02:27.697Z,25.00
2018-08-28T15:04:56.184Z,24.90
2018-08-28T15:07:24.690Z,24.80
2018-08-28T15:09:53.113Z,24.90
2018-08-28T15:12:21.567Z,24.80
2018-08-28T15:14:50.008Z,24.80
2018-08-28T15:17:18.449Z,24.80
2018-08-28T15:19:46.874Z,24.80
2018-08-28T15:22:15.284Z,24.80
2018-08-28T15:24:43.737Z,24.70
2018-08-28T15:27:12.306Z,24.60
2018-08-28T15:29:40.700Z,24.50
2018-08-28T15:32:09.137Z,24.40
2018-08-28T15:34:37.612Z,24.30
2018-08-28T15:37:06.026Z,24.30
2018-08-28T15:39:34.454Z,24.30
2018-08-28T15:42:02.850Z,24.20
2018-08-28T15:44:31.320Z,24.20
2018-08-28T15:46:59.738Z,24.10
2018-08-28T15:49:28.197Z,24.00
2018-08-28T15:51:56.683Z,24.00
2018-08-28T15:54:25.269Z,24.10
2018-08-28T15:56:53.724Z,24.10
2018-08-28T15:59:22.330Z,24.10
2018-08-28T16:01:50.776Z,24.20
2018-08-28T16:04:19.784Z,24.20
2018-08-28T16:06:49.546Z,24.30
2018-08-28T16:09:17.999Z,24.30
2018-08-28T16:11:47.024Z,24.30
2018-08-28T16:14:15.720Z,24.30
2018-08-28T16:16:45.338Z,24.30
2018-08-28T16:19:13.949Z,24.30
2018-08-28T16:22:00.212Z,24.30
2018-08-28T16:24:28.700Z,24.20
2018-08-28T16:26:57.143Z,24.20
2018-08-28T16:29:25.616Z,24.20
2018-08-28T16:31:54.047Z,24.20
2018-08-28T16:34:22.545Z,24.20
2018-08-28T16:36:51.005Z,24.10
2018-08-28T16:39:19.484Z,24.10
2018-08-28T16:41:48.025Z,24.10
2018-08-28T16:46:44.607Z,24.10
2018-08-28T16:49:13.068Z,24.00
2018-08-28T16:51:41.497Z,24.10
2018-08-28T16:54:09.973Z,24.00
2018-08-28T16:56:38.430Z,24.00
2018-08-28T16:59:06.879Z,24.00
2018-08-28T17:01:35.401Z,24.00
2018-08-28T17:04:03.838Z,23.90
2018-08-28T17:06:32.265Z,23.80
2018-08-28T17:09:00.728Z,23.70
2018-08-28T17:11:29.351Z,23.60
2018-08-28T17:13:57.852Z,23.60
2018-08-28T17:16:26.283Z,23.50
2018-08-28T17:18:54.709Z,23.30
2018-08-28T17:21:23.193Z,23.20
2018-08-28T17:23:51.634Z,23.20
2018-08-28T17:26:20.084Z,23.10
2018-08-28T17:28:48.625Z,23.00
2018-08-28T17:31:17.064Z,22.90
2018-08-28T17:33:45.484Z,22.80
2018-08-28T17:36:13.961Z,22.70
2018-08-28T17:38:42.411Z,22.70
2018-08-28T17:41:10.857Z,22.50
2018-08-28T17:43:39.323Z,22.40
2018-08-28T17:46:07.796Z,22.40
2018-08-28T17:48:36.275Z,22.20
2018-08-28T17:51:05.089Z,22.20
2018-08-28T17:53:33.505Z,22.10
2018-08-28T17:56:01.946Z,22.10
2018-08-28T17:58:30.434Z,21.90
2018-08-28T18:00:58.906Z,21.90
2018-08-28T18:03:27.373Z,21.80
2018-08-28T18:05:55.909Z,21.80
2018-08-28T18:08:24.330Z,21.70
2018-08-28T18:10:52.789Z,21.50
2018-08-28T18:13:21.218Z,21.50
2018-08-28T18:15:49.673Z,21.40
2018-08-28T18:18:18.124Z,21.30
2018-08-28T18:20:46.594Z,21.20
2018-08-28T18:23:15.008Z,21.20
2018-08-28T18:25:43.454Z,21.00
2018-08-28T18:28:11.848Z,20.80
2018-08-28T18:30:40.332Z,20.70
2018-08-28T18:33:08.899Z,20.70
2018-08-28T18:35:37.350Z,20.60
2018-08-28T18:38:05.796Z,20.50
2018-08-28T18:40:34.240Z,20.40
2018-08-28T18:43:02.684Z,20.30
2018-08-28T18:45:31.116Z,20.20
2018-08-28T18:47:59.583Z,20.20
2018-08-28T18:50:28.034Z,20.10
2018-08-28T18:52:56.461Z,20.10
2018-08-28T18:55:24.973Z,20.00
2018-08-28T18:57:53.458Z,20.00
2018-08-28T19:00:22.093Z,19.80
2018-08-28T19:02:50.660Z,19.80
2018-08-28T19:05:19.022Z,19.70
2018-08-28T19:07:47.676Z,19.70
2018-08-28T19:10:16.122Z,19.70
2018-08-28T19:12:44.592Z,19.70
2018-08-28T19:15:13.069Z,19.60
2018-08-28T19:17:41.609Z,19.50
2018-08-28T19:20:10.096Z,19.50
2018-08-28T19:22:38.565Z,19.40
2018-08-28T19:25:07.053Z,19.40
2018-08-28T19:27:35.489Z,19.30
2018-08-28T19:30:04.044Z,19.30
2018-08-28T19:32:32.501Z,19.30
2018-08-28T19:35:00.946Z,19.30
2018-08-28T19:37:29.432Z,19.30
2018-08-28T19:39:58.219Z,19.30
2018-08-28T19:42:26.666Z,19.20
2018-08-28T19:44:55.090Z,19.20
2018-08-28T19:47:23.546Z,19.10
2018-08-28T19:49:52.027Z,19.00
2018-08-28T19:52:20.458Z,19.00
2018-08-28T19:54:48.888Z,18.90
2018-08-28T19:57:17.371Z,18.80
2018-08-28T19:59:45.797Z,18.80
2018-08-28T20:02:14.275Z,18.80
2018-08-28T20:04:42.716Z,18.70
2018-08-28T20:07:11.177Z,18.60
2018-08-28T20:09:39.589Z,18.60
2018-08-28T20:12:08.077Z,18.50
2018-08-28T20:14:36.530Z,18.50
2018-08-28T20:17:05.297Z,18.50
2018-08-28T20:22:01.926Z,18.40
2018-08-28T20:24:30.369Z,18.30
2018-08-28T20:26:58.849Z,18.30
2018-08-28T20:29:29.825Z,18.30
2018-08-28T20:31:58.379Z,18.30
2018-08-28T20:34:26.789Z,18.20
2018-08-28T20:36:55.268Z,18.10
2018-08-28T20:39:23.717Z,18.10
2018-08-28T20:41:52.205Z,18.10
2018-08-28T20:46:48.785Z,18.00
2018-08-28T20:49:17.256Z,18.00
2018-08-28T20:51:45.682Z,17.90
2018-08-28T20:54:14.154Z,17.90
2018-08-28T20:56:42.773Z,17.90
2018-08-28T20:59:11.221Z,17.80
2018-08-28T21:01:39.836Z,17.80
2018-08-28T21:04:08.665Z,17.70
2018-08-28T21:06:37.247Z,17.70
2018-08-28T21:09:06.934Z,17.70
2018-08-28T21:11:35.502Z,17.60
2018-08-28T21:14:03.960Z,17.50
2018-08-28T21:16:32.397Z,17.50
2018-08-28T21:19:00.844Z,17.50
2018-08-28T21:21:29.278Z,17.40
2018-08-28T21:23:57.856Z,17.40
2018-08-28T21:26:26.321Z,17.30
2018-08-28T21:28:54.837Z,17.30
2018-08-28T21:31:23.422Z,17.20
2018-08-28T21:33:51.986Z,17.10
2018-08-28T21:36:20.493Z,17.10
2018-08-28T21:38:48.953Z,17.10
2018-08-28T21:41:17.370Z,17.10
2018-08-28T21:43:45.874Z,17.00
2018-08-28T21:46:14.301Z,17.00
2018-08-28T21:48:42.762Z,17.00
2018-08-28T21:51:11.173Z,17.00
2018-08-28T21:53:39.616Z,17.00
2018-08-28T21:56:08.048Z,16.90
2018-08-28T21:58:36.526Z,16.90
2018-08-28T22:01:12.018Z,16.80
2018-08-28T22:03:41.720Z,16.80
2018-08-28T22:06:15.629Z,16.80
2018-08-28T22:08:44.221Z,16.70
2018-08-28T22:16:09.320Z,16.60
2018-08-28T22:18:37.828Z,16.50
2018-08-28T22:21:06.260Z,16.50
2018-08-28T22:23:34.711Z,16.50
2018-08-28T22:26:03.105Z,16.50
2018-08-28T22:28:31.601Z,16.40
2018-08-28T22:31:00.005Z,16.40
2018-08-28T22:33:28.401Z,16.40
2018-08-28T22:35:56.933Z,16.30
2018-08-28T22:38:25.396Z,16.30
2018-08-28T22:40:53.808Z,16.20
2018-08-28T22:43:23.394Z,16.10
2018-08-28T22:45:52.080Z,16.00
2018-08-28T22:48:20.485Z,16.00
2018-08-28T22:50:48.937Z,16.00
2018-08-28T22:53:17.313Z,16.00
2018-08-28T22:55:45.704Z,16.00
2018-08-28T22:58:14.107Z,16.00
2018-08-28T23:00:42.521Z,15.90
2018-08-28T23:03:10.936Z,15.90
2018-08-28T23:05:39.353Z,15.90
2018-08-28T23:08:07.831Z,15.90
2018-08-28T23:10:36.259Z,15.90
2018-08-28T23:13:04.654Z,15.80
2018-08-28T23:15:33.043Z,15.80
2018-08-28T23:18:01.438Z,15.80
2018-08-28T23:20:29.824Z,15.70
2018-08-28T23:22:58.208Z,15.70
2018-08-28T23:25:26.607Z,15.70
2018-08-28T23:27:54.984Z,15.70
2018-08-28T23:30:23.381Z,15.70
2018-08-28T23:32:52.018Z,15.70
2018-08-28T23:35:20.421Z,15.70
2018-08-28T23:37:48.813Z,15.60
2018-08-28T23:40:17.215Z,15.60
2018-08-28T23:42:45.593Z,15.60
2018-08-28T23:45:14.021Z,15.50
2018-08-28T23:47:42.436Z,15.50
2018-08-28T23:50:10.913Z,15.40
2018-08-28T23:52:39.335Z,15.40
2018-08-28T23:55:07.817Z,15.30
2018-08-28T23:57:36.411Z,15.20
